createdAt,value
2023-02-05T00:02:05.055Z,10.30
2023-02-05T00:04:35.043Z,10.20
2023-02-05T00:07:03.416Z,10.20
2023-02-05T00:09:32.287Z,10.20
2023-02-05T00:12:02.588Z,10.20
2023-02-05T00:14:30.603Z,10.20
2023-02-05T00:16:58.761Z,10.20
2023-02-05T00:19:26.773Z,10.20
2023-02-05T00:21:56.098Z,10.20
2023-02-05T00:24:24.266Z,10.10
2023-02-05T00:26:52.274Z,10.10
2023-02-05T00:29:21.423Z,10.10
2023-02-05T00:31:50.357Z,10.10
2023-02-05T00:34:18.405Z,10.10
2023-02-05T00:36:46.457Z,10.10
2023-02-05T00:39:16.156Z,10.00
2023-02-05T00:41:45.370Z,10.00
2023-02-05T00:44:13.324Z,10.00
2023-02-05T00:46:41.293Z,10.00
2023-02-05T00:49:09.808Z,9.90
2023-02-05T00:51:38.536Z,9.90
2023-02-05T00:54:06.974Z,9.90
2023-02-05T00:56:36.580Z,9.90
2023-02-05T00:59:05.445Z,9.90
2023-02-05T01:01:33.515Z,9.90
2023-02-05T01:04:01.521Z,9.90
2023-02-05T01:06:29.656Z,9.80
2023-02-05T01:08:57.737Z,9.80
2023-02-05T01:11:25.706Z,9.70
2023-02-05T01:13:57.071Z,9.70
2023-02-05T01:16:25.397Z,9.70
2023-02-05T01:18:56.329Z,9.70
2023-02-05T01:21:25.041Z,9.60
2023-02-05T01:23:55.081Z,9.60
2023-02-05T01:26:23.205Z,9.60
2023-02-05T01:28:51.302Z,9.60
2023-02-05T01:31:22.006Z,9.50
2023-02-05T01:33:50.319Z,9.50
2023-02-05T01:36:25.562Z,9.50
2023-02-05T01:38:54.458Z,9.50
2023-02-05T01:41:22.450Z,9.50
2023-02-05T01:44:10.119Z,9.50
2023-02-05T01:46:41.411Z,9.50
2023-02-05T01:49:12.460Z,9.50
2023-02-05T01:51:41.013Z,9.50
2023-02-05T01:54:09.963Z,9.50
2023-02-05T01:56:43.463Z,9.50
2023-02-05T01:59:16.767Z,9.50
2023-02-05T02:01:47.796Z,9.50
2023-02-05T02:04:29.086Z,9.50
2023-02-05T02:06:57.448Z,9.50
2023-02-05T02:09:25.678Z,9.50
2023-02-05T02:11:54.581Z,9.50
2023-02-05T02:14:30.202Z,9.50
2023-02-05T02:17:03.528Z,9.40
2023-02-05T02:19:35.438Z,9.40
2023-02-05T02:22:36.306Z,9.40
2023-02-05T02:25:24.012Z,9.50
2023-02-05T02:27:57.406Z,9.50
2023-02-05T02:30:30.784Z,9.50
2023-02-05T02:33:08.169Z,9.50
2023-02-05T02:35:46.720Z,9.50
2023-02-05T02:38:22.669Z,9.40
2023-02-05T02:40:53.117Z,9.40
2023-02-05T02:43:26.758Z,9.40
2023-02-05T02:46:00.148Z,9.40
2023-02-05T02:48:30.694Z,9.50
2023-02-05T02:51:01.264Z,9.40
2023-02-05T02:53:34.970Z,9.40
2023-02-05T02:56:07.110Z,9.40
2023-02-05T02:58:40.436Z,9.30
2023-02-05T03:01:13.542Z,9.40
2023-02-05T03:03:49.662Z,9.30
2023-02-05T03:06:20.116Z,9.40
2023-02-05T03:08:57.278Z,9.40
2023-02-05T03:11:27.131Z,9.40
2023-02-05T03:13:57.818Z,9.40
2023-02-05T03:16:28.428Z,9.40
2023-02-05T03:18:58.391Z,9.40
2023-02-05T03:21:34.224Z,9.40
2023-02-05T03:24:04.246Z,9.40
2023-02-05T03:26:35.113Z,9.40
2023-02-05T03:29:11.412Z,9.40
2023-02-05T03:31:48.698Z,9.30
2023-02-05T03:34:26.837Z,9.30
2023-02-05T03:37:07.229Z,9.30
2023-02-05T03:39:47.188Z,9.30
2023-02-05T03:42:29.262Z,9.30
2023-02-05T03:45:19.123Z,9.20
2023-02-05T03:48:05.847Z,9.20
2023-02-05T03:50:38.837Z,9.20
2023-02-05T03:53:13.529Z,9.30
2023-02-05T03:55:50.417Z,9.20
2023-02-05T03:58:24.881Z,9.30
2023-02-05T04:00:55.811Z,9.30
2023-02-05T04:03:24.242Z,9.30
2023-02-05T04:05:52.241Z,9.30
2023-02-05T04:08:20.201Z,9.20
2023-02-05T04:10:49.196Z,9.20
2023-02-05T04:13:17.164Z,9.20
2023-02-05T04:15:45.252Z,9.20
2023-02-05T04:18:14.576Z,9.10
2023-02-05T04:20:43.699Z,9.10
2023-02-05T04:23:11.973Z,9.00
2023-02-05T04:25:40.803Z,9.00
2023-02-05T04:28:31.212Z,9.00
2023-02-05T04:31:02.634Z,8.90
2023-02-05T04:33:32.541Z,8.90
2023-02-05T04:36:01.474Z,8.90
2023-02-05T04:38:29.813Z,8.80
2023-02-05T04:40:58.603Z,8.80
2023-02-05T04:43:27.432Z,8.70
2023-02-05T04:45:55.500Z,8.70
2023-02-05T04:48:23.792Z,8.70
2023-02-05T04:50:53.302Z,8.60
2023-02-05T04:53:21.809Z,8.60
2023-02-05T04:55:51.668Z,8.50
2023-02-05T04:58:21.397Z,8.50
2023-02-05T05:00:49.409Z,8.50
2023-02-05T05:03:18.095Z,8.40
2023-02-05T05:05:47.262Z,8.40
2023-02-05T05:08:16.681Z,8.40
2023-02-05T05:10:45.757Z,8.40
2023-02-05T05:13:14.318Z,8.40
2023-02-05T05:15:42.744Z,8.30
2023-02-05T05:18:11.058Z,8.30
2023-02-05T05:20:41.200Z,8.30
2023-02-05T05:23:11.411Z,8.30
2023-02-05T05:25:44.289Z,8.30
2023-02-05T05:28:16.521Z,8.10
2023-02-05T05:30:46.283Z,8.10
2023-02-05T05:33:17.894Z,8.00
2023-02-05T05:35:49.486Z,7.90
2023-02-05T05:38:19.671Z,7.90
2023-02-05T05:41:10.496Z,8.00
2023-02-05T05:43:50.424Z,7.80
2023-02-05T05:46:22.938Z,7.80
2023-02-05T05:48:52.557Z,7.80
2023-02-05T05:51:21.905Z,7.70
2023-02-05T05:53:50.274Z,7.70
2023-02-05T05:56:20.399Z,7.70
2023-02-05T05:58:49.852Z,7.70
2023-02-05T06:01:20.374Z,7.70
2023-02-05T06:03:48.293Z,7.70
2023-02-05T06:06:16.533Z,7.70
2023-02-05T06:08:44.540Z,7.70
2023-02-05T06:11:13.134Z,7.60
2023-02-05T06:13:42.425Z,7.60
2023-02-05T06:16:10.378Z,7.60
2023-02-05T06:18:38.456Z,7.60
2023-02-05T06:21:06.859Z,7.70
2023-02-05T06:23:35.024Z,7.70
2023-02-05T06:26:03.019Z,7.60
2023-02-05T06:28:30.956Z,7.70
2023-02-05T06:31:00.375Z,7.70
2023-02-05T06:33:28.405Z,7.60
2023-02-05T06:35:56.501Z,7.60
2023-02-05T06:38:24.832Z,7.70
2023-02-05T06:40:53.118Z,7.60
2023-02-05T06:43:21.020Z,7.70
2023-02-05T06:45:48.971Z,7.60
2023-02-05T06:48:19.173Z,7.70
2023-02-05T06:50:47.498Z,7.70
2023-02-05T06:53:15.689Z,7.60
2023-02-05T06:55:43.810Z,7.70
2023-02-05T06:58:11.803Z,7.60
2023-02-05T07:00:39.956Z,7.50
2023-02-05T07:03:08.017Z,7.50
2023-02-05T07:05:37.469Z,7.60
2023-02-05T07:08:06.741Z,7.60
2023-02-05T07:10:34.975Z,7.60
2023-02-05T07:13:05.542Z,7.70
2023-02-05T07:15:34.142Z,7.70
2023-02-05T07:18:02.550Z,7.70
2023-02-05T07:20:30.549Z,7.70
2023-02-05T07:23:00.368Z,7.70
2023-02-05T07:25:28.333Z,7.80
2023-02-05T07:27:56.497Z,7.80
2023-02-05T07:30:24.485Z,7.80
2023-02-05T07:32:52.499Z,7.80
2023-02-05T07:35:20.574Z,7.80
2023-02-05T07:37:50.439Z,7.80
2023-02-05T07:40:19.915Z,7.80
2023-02-05T07:42:48.048Z,7.80
2023-02-05T07:45:16.079Z,7.80
2023-02-05T07:47:43.998Z,7.70
2023-02-05T07:50:11.995Z,7.70
2023-02-05T07:52:39.980Z,7.70
2023-02-05T07:55:08.289Z,7.70
2023-02-05T07:57:37.592Z,7.80
2023-02-05T08:00:07.502Z,7.80
2023-02-05T08:02:35.385Z,7.80
2023-02-05T08:05:03.504Z,7.90
2023-02-05T08:07:31.470Z,7.80
2023-02-05T08:09:59.388Z,7.80
2023-02-05T08:12:27.596Z,7.80
2023-02-05T08:14:56.861Z,7.80
2023-02-05T08:17:24.780Z,7.90
2023-02-05T08:19:53.124Z,7.90
2023-02-05T08:22:21.097Z,7.90
2023-02-05T08:24:49.029Z,7.90
2023-02-05T08:27:17.093Z,7.90
2023-02-05T08:29:48.220Z,7.90
2023-02-05T08:32:17.541Z,7.90
2023-02-05T08:34:45.499Z,7.90
2023-02-05T08:37:13.421Z,8.00
2023-02-05T08:39:41.874Z,8.00
2023-02-05T08:42:09.944Z,8.00
2023-02-05T08:44:38.040Z,8.00
2023-02-05T08:47:05.990Z,8.10
2023-02-05T08:49:36.865Z,8.00
2023-02-05T08:52:05.559Z,8.00
2023-02-05T08:54:33.764Z,8.10
2023-02-05T08:57:01.963Z,8.10
2023-02-05T08:59:29.876Z,8.10
2023-02-05T09:01:58.111Z,8.10
2023-02-05T09:04:26.099Z,8.20
2023-02-05T09:06:55.414Z,8.20
2023-02-05T09:09:23.620Z,8.30
2023-02-05T09:11:51.725Z,8.20
2023-02-05T09:14:19.710Z,8.30
2023-02-05T09:16:47.875Z,8.30
2023-02-05T09:19:16.217Z,8.30
2023-02-05T09:21:44.806Z,8.30
2023-02-05T09:24:14.126Z,8.40
2023-02-05T09:26:42.153Z,8.30
2023-02-05T09:29:13.206Z,8.30
2023-02-05T09:31:42.504Z,8.40
2023-02-05T09:34:10.569Z,8.40
2023-02-05T09:36:39.197Z,8.50
2023-02-05T09:39:17.472Z,8.50
2023-02-05T09:42:00.520Z,8.50
2023-02-05T09:44:45.864Z,8.50
2023-02-05T09:47:21.055Z,8.60
2023-02-05T09:49:54.578Z,8.60
2023-02-05T09:52:27.348Z,8.60
2023-02-05T09:55:00.098Z,8.70
2023-02-05T09:57:36.254Z,8.70
2023-02-05T10:00:05.742Z,8.80
2023-02-05T10:02:41.002Z,8.80
2023-02-05T10:05:14.646Z,8.80
2023-02-05T10:07:52.106Z,8.70
2023-02-05T10:10:29.477Z,8.70
2023-02-05T10:13:29.967Z,8.80
2023-02-05T10:16:23.337Z,8.70
2023-02-05T10:19:07.232Z,8.70
2023-02-05T10:21:56.091Z,8.70
2023-02-05T10:24:47.436Z,8.60
2023-02-05T10:27:21.118Z,8.60
2023-02-05T10:30:02.547Z,8.60
2023-02-05T10:32:42.385Z,8.60
2023-02-05T10:35:23.439Z,8.60
2023-02-05T10:37:56.856Z,8.50
2023-02-05T10:40:29.422Z,8.50
2023-02-05T10:43:02.576Z,8.60
2023-02-05T10:45:33.154Z,8.60
2023-02-05T10:48:20.350Z,8.60
2023-02-05T10:50:55.862Z,8.60
2023-02-05T10:53:26.192Z,8.60
2023-02-05T10:55:55.010Z,8.60
2023-02-05T10:58:41.237Z,8.60
2023-02-05T11:01:17.377Z,8.60
2023-02-05T11:03:57.651Z,8.60
2023-02-05T11:06:28.401Z,8.70
2023-02-05T11:08:56.367Z,8.70
2023-02-05T11:11:28.389Z,8.70
2023-02-05T11:13:59.130Z,8.80
2023-02-05T11:16:37.683Z,8.70
2023-02-05T11:19:05.771Z,8.70
2023-02-05T11:21:53.469Z,8.80
2023-02-05T11:24:25.315Z,8.70
2023-02-05T11:27:33.004Z,8.70
2023-02-05T11:30:37.634Z,8.70
2023-02-05T11:33:25.435Z,8.80
2023-02-05T11:35:56.450Z,8.70
2023-02-05T11:38:31.277Z,8.80
2023-02-05T11:41:01.972Z,8.80
2023-02-05T11:43:32.609Z,8.80
2023-02-05T11:46:03.007Z,8.80
2023-02-05T11:48:39.587Z,8.90
2023-02-05T11:51:10.938Z,8.80
2023-02-05T11:53:44.643Z,8.90
2023-02-05T11:56:24.253Z,8.90
2023-02-05T11:59:04.373Z,8.80
2023-02-05T12:01:34.841Z,8.80
2023-02-05T12:04:16.297Z,8.80
2023-02-05T12:06:49.938Z,8.80
2023-02-05T12:09:21.979Z,8.80
2023-02-05T12:12:03.803Z,8.90
2023-02-05T12:14:40.834Z,8.90
2023-02-05T12:17:35.058Z,8.90
2023-02-05T12:20:16.633Z,9.00
2023-02-05T12:23:00.363Z,8.90
2023-02-05T12:25:34.374Z,8.90
2023-02-05T12:28:21.309Z,8.90
2023-02-05T12:31:01.042Z,8.90
2023-02-05T12:33:54.384Z,8.90
2023-02-05T12:36:40.454Z,8.90
2023-02-05T12:39:23.654Z,8.90
2023-02-05T12:42:01.981Z,8.90
2023-02-05T12:44:44.235Z,8.90
2023-02-05T12:47:31.796Z,8.90
2023-02-05T12:50:18.858Z,8.90
2023-02-05T12:53:01.299Z,8.90
2023-02-05T12:55:42.301Z,9.00
2023-02-05T12:58:14.113Z,8.90
2023-02-05T13:00:44.973Z,9.00
2023-02-05T13:03:23.070Z,9.00
2023-02-05T13:05:53.871Z,9.00
2023-02-05T13:08:32.254Z,9.00
2023-02-05T13:11:08.999Z,9.10
2023-02-05T13:13:46.466Z,9.10
2023-02-05T13:16:18.137Z,9.10
2023-02-05T13:18:55.070Z,9.10
2023-02-05T13:21:41.219Z,9.20
2023-02-05T13:24:42.045Z,9.10
2023-02-05T13:27:38.402Z,9.10
2023-02-05T13:30:13.452Z,9.20
2023-02-05T13:32:43.975Z,9.20
2023-02-05T13:35:12.304Z,9.20
2023-02-05T13:38:10.553Z,9.20
2023-02-05T13:41:19.106Z,9.20
2023-02-05T13:44:16.964Z,9.30
2023-02-05T13:47:23.636Z,9.30
2023-02-05T13:50:33.013Z,9.30
2023-02-05T13:53:23.006Z,9.20
2023-02-05T13:56:23.972Z,9.20
2023-02-05T13:58:54.490Z,9.20
2023-02-05T14:01:25.687Z,9.30
2023-02-05T14:04:00.448Z,9.30
2023-02-05T14:06:33.124Z,9.30
2023-02-05T14:09:05.192Z,9.30
2023-02-05T14:11:55.728Z,9.30
2023-02-05T14:14:27.935Z,9.30
2023-02-05T14:16:57.363Z,9.30
2023-02-05T14:19:55.941Z,9.20
2023-02-05T14:22:45.413Z,9.20
2023-02-05T14:26:05.325Z,9.20
2023-02-05T14:28:47.255Z,9.20
2023-02-05T14:31:46.540Z,9.10
2023-02-05T14:34:55.960Z,9.10
2023-02-05T14:37:38.472Z,9.20
2023-02-05T14:40:28.830Z,9.20
2023-02-05T14:43:09.612Z,9.30
2023-02-05T14:45:45.437Z,9.30
2023-02-05T14:48:23.710Z,9.30
2023-02-05T14:51:03.275Z,9.20
2023-02-05T14:53:32.255Z,9.30
2023-02-05T14:56:03.354Z,9.30
2023-02-05T14:58:35.610Z,9.30
2023-02-05T15:01:40.628Z,9.30
2023-02-05T15:04:23.211Z,9.20
2023-02-05T15:06:52.578Z,9.30
2023-02-05T15:09:26.211Z,9.20
2023-02-05T15:12:18.410Z,9.20
2023-02-05T15:14:53.465Z,9.20
2023-02-05T15:17:52.375Z,9.10
2023-02-05T15:20:26.572Z,9.10
2023-02-05T15:23:03.548Z,9.10
2023-02-05T15:25:39.579Z,9.10
2023-02-05T15:28:19.680Z,9.10
2023-02-05T15:30:55.102Z,9.00
2023-02-05T15:33:32.792Z,9.00
2023-02-05T15:36:08.119Z,9.00
2023-02-05T15:38:45.089Z,9.00
2023-02-05T15:41:16.945Z,9.00
2023-02-05T15:43:59.798Z,9.00
2023-02-05T15:46:29.038Z,9.00
2023-02-05T15:48:57.715Z,9.00
2023-02-05T15:51:31.670Z,8.90
2023-02-05T15:54:02.644Z,8.90
2023-02-05T15:56:35.619Z,8.90
2023-02-05T15:59:12.136Z,8.90
2023-02-05T16:01:44.985Z,8.80
2023-02-05T16:04:21.142Z,8.70
2023-02-05T16:06:50.778Z,8.70
2023-02-05T16:09:20.999Z,8.70
2023-02-05T16:11:49.513Z,8.60
2023-02-05T16:14:19.686Z,8.50
2023-02-05T16:17:00.308Z,8.50
2023-02-05T16:19:34.641Z,8.50
2023-02-05T16:22:15.717Z,8.40
2023-02-05T16:24:48.890Z,8.40
2023-02-05T16:27:21.050Z,8.40
2023-02-05T16:29:51.925Z,8.30
2023-02-05T16:32:28.262Z,8.30
2023-02-05T16:34:56.410Z,8.30
2023-02-05T16:37:28.998Z,8.20
2023-02-05T16:39:58.531Z,8.30
2023-02-05T16:42:39.413Z,8.20
2023-02-05T16:45:20.386Z,8.30
2023-02-05T16:48:20.519Z,8.20
2023-02-05T16:50:49.002Z,8.20
2023-02-05T16:53:25.002Z,8.10
2023-02-05T16:55:58.459Z,8.10
2023-02-05T16:58:29.072Z,8.00
2023-02-05T17:00:59.500Z,8.00
2023-02-05T17:03:35.198Z,8.00
2023-02-05T17:06:05.720Z,8.00
2023-02-05T17:08:37.818Z,8.00
2023-02-05T17:11:07.711Z,8.00
2023-02-05T17:13:39.975Z,7.90
2023-02-05T17:16:29.389Z,8.00
2023-02-05T17:18:59.420Z,8.00
2023-02-05T17:21:30.626Z,8.00
2023-02-05T17:24:02.834Z,7.90
2023-02-05T17:26:33.314Z,7.90
2023-02-05T17:29:03.917Z,7.90
2023-02-05T17:31:36.182Z,7.90
2023-02-05T17:34:04.463Z,7.90
2023-02-05T17:36:32.682Z,7.90
2023-02-05T17:39:02.068Z,7.90
2023-02-05T17:41:51.249Z,7.90
2023-02-05T17:44:19.302Z,8.00
2023-02-05T17:46:47.505Z,7.90
2023-02-05T17:49:15.831Z,7.90
2023-02-05T17:51:43.948Z,7.90
2023-02-05T17:54:16.284Z,7.90
2023-02-05T17:56:46.088Z,8.00
2023-02-05T17:59:16.673Z,8.00
2023-02-05T18:01:44.927Z,8.00
2023-02-05T18:04:13.209Z,8.00
2023-02-05T18:06:41.979Z,8.10
2023-02-05T18:09:10.898Z,8.10
2023-02-05T18:11:43.144Z,8.10
2023-02-05T18:14:11.267Z,8.10
2023-02-05T18:16:39.215Z,8.20
2023-02-05T18:19:07.153Z,8.20
2023-02-05T18:21:35.881Z,8.10
2023-02-05T18:24:04.360Z,8.20
2023-02-05T18:26:32.292Z,8.20
2023-02-05T18:29:01.530Z,8.10
2023-02-05T18:31:29.757Z,8.10
2023-02-05T18:33:57.884Z,8.20
2023-02-05T18:36:25.805Z,8.20
2023-02-05T18:38:53.754Z,8.10
2023-02-05T18:41:22.696Z,8.10
2023-02-05T18:43:54.399Z,8.10
2023-02-05T18:46:24.351Z,8.00
2023-02-05T18:48:53.054Z,8.00
2023-02-05T18:51:22.788Z,7.90
2023-02-05T18:53:50.785Z,8.00
2023-02-05T18:56:21.242Z,8.00
2023-02-05T18:58:53.515Z,8.00
2023-02-05T19:01:23.625Z,8.00
2023-02-05T19:03:54.320Z,8.00
2023-02-05T19:06:23.144Z,8.00
2023-02-05T19:08:51.659Z,8.00
2023-02-05T19:11:22.509Z,8.10
2023-02-05T19:13:56.418Z,8.00
2023-02-05T19:16:26.762Z,8.00
2023-02-05T19:18:55.242Z,8.00
2023-02-05T19:21:24.942Z,8.00
2023-02-05T19:23:54.921Z,7.90
2023-02-05T19:26:24.813Z,7.90
2023-02-05T19:28:55.976Z,7.90
2023-02-05T19:31:27.100Z,7.90
2023-02-05T19:33:56.044Z,7.90
2023-02-05T19:36:24.873Z,7.90
2023-02-05T19:38:53.584Z,7.90
2023-02-05T19:41:24.524Z,7.90
2023-02-05T19:43:53.666Z,7.90
2023-02-05T19:46:24.941Z,7.90
2023-02-05T19:48:55.269Z,7.90
2023-02-05T19:51:23.739Z,7.90
2023-02-05T19:53:51.861Z,7.90
2023-02-05T19:56:22.264Z,7.80
2023-02-05T19:58:53.706Z,7.80
2023-02-05T20:01:24.428Z,7.80
2023-02-05T20:03:55.769Z,7.70
2023-02-05T20:06:26.435Z,7.80
2023-02-05T20:08:54.597Z,7.70
2023-02-05T20:11:23.089Z,7.70
2023-02-05T20:13:51.267Z,7.70
2023-02-05T20:16:22.001Z,7.70
2023-02-05T20:18:56.731Z,7.70
2023-02-05T20:21:26.576Z,7.70
2023-02-05T20:23:55.571Z,7.70
2023-02-05T20:26:23.819Z,7.60
2023-02-05T20:29:12.718Z,7.60
2023-02-05T20:31:43.058Z,7.60
2023-02-05T20:34:18.204Z,7.60
2023-02-05T20:36:49.920Z,7.60
2023-02-05T20:39:19.336Z,7.50
2023-02-05T20:41:48.003Z,7.50
2023-02-05T20:44:17.048Z,7.50
2023-02-05T20:46:45.671Z,7.50
2023-02-05T20:49:16.063Z,7.50
2023-02-05T20:51:44.438Z,7.50
2023-02-05T20:54:13.092Z,7.50
2023-02-05T20:56:41.467Z,7.40
2023-02-05T20:59:12.199Z,7.40
2023-02-05T21:01:41.666Z,7.40
2023-02-05T21:04:41.084Z,7.30
2023-02-05T21:07:11.644Z,7.30
2023-02-05T21:09:40.592Z,7.30
2023-02-05T21:12:10.130Z,7.30
2023-02-05T21:14:39.956Z,7.30
2023-02-05T21:17:10.764Z,7.30
2023-02-05T21:19:41.173Z,7.20
2023-02-05T21:22:09.588Z,7.20
2023-02-05T21:24:38.317Z,7.10
2023-02-05T21:27:07.600Z,7.20
2023-02-05T21:29:36.220Z,7.20
2023-02-05T21:32:04.973Z,7.30
2023-02-05T21:34:33.851Z,7.20
2023-02-05T21:37:03.714Z,7.20
2023-02-05T21:39:36.507Z,7.20
2023-02-05T21:42:12.459Z,7.30
2023-02-05T21:44:40.434Z,7.30
2023-02-05T21:47:08.402Z,7.30
2023-02-05T21:49:42.237Z,7.20
2023-02-05T21:52:12.587Z,7.30
2023-02-05T21:54:41.858Z,7.30
2023-02-05T21:57:10.927Z,7.30
2023-02-05T21:59:40.326Z,7.40
2023-02-05T22:02:11.799Z,7.40
2023-02-05T22:04:39.831Z,7.40
2023-02-05T22:07:09.457Z,7.40
2023-02-05T22:09:42.158Z,7.40
2023-02-05T22:12:11.800Z,7.40
2023-02-05T22:14:44.587Z,7.40
2023-02-05T22:17:13.718Z,7.40
2023-02-05T22:20:02.080Z,7.40
2023-02-05T22:22:30.294Z,7.50
2023-02-05T22:24:59.948Z,7.40
2023-02-05T22:27:27.965Z,7.40
2023-02-05T22:29:57.009Z,7.40
2023-02-05T22:32:25.035Z,7.40
2023-02-05T22:34:54.497Z,7.50
2023-02-05T22:37:23.026Z,7.40
2023-02-05T22:39:51.312Z,7.50
2023-02-05T22:42:22.133Z,7.50
2023-02-05T22:44:51.869Z,7.40
2023-02-05T22:47:20.067Z,7.40
2023-02-05T22:49:48.401Z,7.50
2023-02-05T22:52:16.876Z,7.50
2023-02-05T22:54:46.628Z,7.40
2023-02-05T22:57:15.144Z,7.40
2023-02-05T23:00:04.603Z,7.50
2023-02-05T23:02:32.535Z,7.40
2023-02-05T23:05:00.713Z,7.40
2023-02-05T23:07:29.844Z,7.40
2023-02-05T23:10:01.105Z,7.50
2023-02-05T23:12:30.095Z,7.50
2023-02-05T23:15:00.527Z,7.50
2023-02-05T23:17:29.710Z,7.40
2023-02-05T23:19:57.738Z,7.50
2023-02-05T23:22:29.712Z,7.40
2023-02-05T23:24:58.185Z,7.50
2023-02-05T23:27:27.289Z,7.50
2023-02-05T23:29:58.451Z,7.40
2023-02-05T23:32:27.760Z,7.40
2023-02-05T23:34:55.732Z,7.40
2023-02-05T23:37:25.884Z,7.40
2023-02-05T23:39:53.921Z,7.50
2023-02-05T23:42:22.962Z,7.50
2023-02-05T23:44:50.926Z,7.50
2023-02-05T23:47:19.560Z,7.50
2023-02-05T23:49:51.613Z,7.50
2023-02-05T23:52:19.830Z,7.40
2023-02-05T23:54:48.783Z,7.40
2023-02-05T23:57:17.295Z,7.50
2023-02-05T23:59:46.907Z,7.40
